createdAt,value
2019-01-20T00:01:32.363Z,12.50
2019-01-20T00:07:16.875Z,9.53
2019-01-20T00:13:03.019Z,10.27
2019-01-20T00:18:49.320Z,11.67
2019-01-20T00:21:51.427Z,10.93
2019-01-20T00:27:37.793Z,13.77
2019-01-20T00:33:23.585Z,12.07
2019-01-20T00:39:09.082Z,9.47
2019-01-20T00:45:02.378Z,12.80
2019-01-20T00:47:57.210Z,9.10
2019-01-20T00:53:43.040Z,9.33
2019-01-20T00:59:28.755Z,13.90
2019-01-20T01:05:13.277Z,9.83
2019-01-20T01:08:14.431Z,8.97
2019-01-20T01:13:59.263Z,9.80
2019-01-20T01:19:45.736Z,12.07
2019-01-20T01:25:31.299Z,11.03
2019-01-20T01:28:32.103Z,11.97
2019-01-20T01:34:18.440Z,11.70
2019-01-20T01:40:04.766Z,9.50
2019-01-20T01:45:51.140Z,10.53
2019-01-20T01:48:52.319Z,10.40
2019-01-20T01:54:38.248Z,12.00
2019-01-20T01:57:39.514Z,8.60
2019-01-20T02:00:40.132Z,11.47
2019-01-20T02:03:40.652Z,12.10
2019-01-20T02:10:20.526Z,8.73
2019-01-20T02:16:07.181Z,12.03
2019-01-20T02:19:08.439Z,8.03
2019-01-20T02:22:09.207Z,9.10
2019-01-20T02:25:10.184Z,10.47
2019-01-20T02:30:57.609Z,10.00
2019-01-20T02:36:40.870Z,10.37
2019-01-20T02:42:25.788Z,10.23
2019-01-20T02:45:26.378Z,9.63
2019-01-20T02:51:11.414Z,9.93
2019-01-20T02:56:57.492Z,12.97
2019-01-20T02:59:57.838Z,9.20
2019-01-20T03:02:59.434Z,10.00
2019-01-20T03:06:00.743Z,10.43
2019-01-20T03:09:02.375Z,8.47
2019-01-20T03:14:47.862Z,9.23
2019-01-20T03:17:49.403Z,11.00
2019-01-20T03:23:35.136Z,9.33
2019-01-20T03:29:21.622Z,12.43
2019-01-20T03:35:08.242Z,9.47
2019-01-20T03:38:09.587Z,10.70
2019-01-20T03:43:54.191Z,9.47
2019-01-20T03:49:43.539Z,10.07
2019-01-20T03:55:28.857Z,10.23
2019-01-20T04:01:34.647Z,9.83
2019-01-20T04:07:20.444Z,9.87
2019-01-20T04:10:21.759Z,9.37
2019-01-20T04:16:08.079Z,9.50
2019-01-20T04:21:57.415Z,11.77
2019-01-20T04:27:44.778Z,9.67
2019-01-20T04:33:29.441Z,9.70
2019-01-20T04:36:30.730Z,10.23
2019-01-20T04:48:34.050Z,10.77
2019-01-20T04:51:35.734Z,11.60
2019-01-20T04:57:22.336Z,12.33
2019-01-20T05:03:08.010Z,11.50
2019-01-20T05:08:53.803Z,9.07
2019-01-20T05:11:54.963Z,10.33
2019-01-20T05:17:39.974Z,10.30
2019-01-20T05:26:35.937Z,10.37
2019-01-20T05:29:37.357Z,11.57
2019-01-20T05:35:47.803Z,9.53
2019-01-20T05:38:46.902Z,13.50
2019-01-20T05:44:51.466Z,10.27
2019-01-20T05:47:52.796Z,10.17
2019-01-20T05:53:38.187Z,11.40
2019-01-20T05:59:22.170Z,10.60
2019-01-20T06:05:08.120Z,14.80
2019-01-20T06:11:34.290Z,12.57
2019-01-20T06:14:35.751Z,11.80
2019-01-20T06:20:21.489Z,9.90
2019-01-20T06:23:22.954Z,18.50
2019-01-20T06:29:08.654Z,13.10
2019-01-20T06:34:55.142Z,12.93
2019-01-20T06:40:40.054Z,13.90
2019-01-20T06:43:40.627Z,10.10
2019-01-20T06:46:41.158Z,11.20
2019-01-20T06:49:42.722Z,10.17
2019-01-20T06:52:42.930Z,11.00
2019-01-20T06:55:43.580Z,12.27
2019-01-20T06:58:44.629Z,13.07
2019-01-20T07:04:30.818Z,11.80
2019-01-20T07:10:16.636Z,9.03
2019-01-20T07:16:02.787Z,11.63
2019-01-20T07:19:02.395Z,10.83
2019-01-20T07:25:04.695Z,10.57
2019-01-20T07:31:06.609Z,10.57
2019-01-20T07:34:16.210Z,15.23
2019-01-20T07:37:18.634Z,13.37
2019-01-20T07:40:20.378Z,11.37
2019-01-20T07:46:06.252Z,12.77
2019-01-20T07:51:51.579Z,13.17
2019-01-20T07:54:50.995Z,10.30
2019-01-20T08:04:41.327Z,13.13
2019-01-20T08:10:26.603Z,18.97
2019-01-20T08:16:13.140Z,18.27
2019-01-20T08:21:58.758Z,15.73
2019-01-20T08:28:38.044Z,13.87
2019-01-20T08:31:39.404Z,14.47
2019-01-20T08:37:28.804Z,15.10
2019-01-20T08:43:11.717Z,18.63
2019-01-20T08:46:13.014Z,17.43
2019-01-20T08:51:58.595Z,15.53
2019-01-20T08:57:43.398Z,14.10
2019-01-20T09:03:27.266Z,16.20
2019-01-20T09:09:12.592Z,14.93
2019-01-20T09:12:12.143Z,18.63
2019-01-20T09:17:56.882Z,16.30
2019-01-20T09:27:53.686Z,14.27
2019-01-20T09:34:01.115Z,18.33
2019-01-20T09:40:05.791Z,15.30
2019-01-20T09:45:51.711Z,14.57
2019-01-20T09:51:36.502Z,14.33
2019-01-20T09:57:23.186Z,16.20
2019-01-20T10:03:16.794Z,16.97
2019-01-20T10:06:17.998Z,19.57
2019-01-20T10:12:29.675Z,13.83
2019-01-20T10:18:14.366Z,18.83
2019-01-20T10:23:59.719Z,18.67
2019-01-20T10:29:45.419Z,19.07
2019-01-20T10:32:47.980Z,18.97
2019-01-20T10:38:37.195Z,16.90
2019-01-20T10:44:21.704Z,24.40
2019-01-20T10:50:07.564Z,22.23
2019-01-20T10:53:08.969Z,17.50
2019-01-20T10:58:54.492Z,20.10
2019-01-20T11:04:45.915Z,21.27
2019-01-20T11:10:31.578Z,25.10
2019-01-20T11:13:32.751Z,22.97
2019-01-20T11:19:18.586Z,23.70
2019-01-20T11:25:04.379Z,29.30
2019-01-20T11:30:50.822Z,24.43
2019-01-20T11:33:51.977Z,25.53
2019-01-20T11:39:36.771Z,25.30
2019-01-20T11:45:22.419Z,25.37
2019-01-20T11:51:08.071Z,25.87
2019-01-20T11:54:09.574Z,24.50
2019-01-20T11:59:54.623Z,25.63
2019-01-20T12:05:40.265Z,24.10
2019-01-20T12:11:25.274Z,27.90
2019-01-20T12:14:26.454Z,25.37
2019-01-20T12:17:27.395Z,24.17
2019-01-20T12:20:28.027Z,23.87
2019-01-20T12:26:14.263Z,26.03
2019-01-20T12:32:00.769Z,28.50
2019-01-20T12:35:02.259Z,28.27
2019-01-20T12:40:47.880Z,25.83
2019-01-20T12:46:32.989Z,23.33
2019-01-20T12:52:19.559Z,23.40
2019-01-20T12:55:20.803Z,23.70
2019-01-20T13:01:06.623Z,22.37
2019-01-20T13:06:51.503Z,25.77
2019-01-20T13:12:36.431Z,22.03
2019-01-20T13:15:38.120Z,24.23
2019-01-20T13:21:23.754Z,25.10
2019-01-20T13:27:09.296Z,25.30
2019-01-20T13:32:54.762Z,24.40
2019-01-20T13:35:55.962Z,24.53
2019-01-20T13:41:41.303Z,22.20
2019-01-20T13:47:27.322Z,27.23
2019-01-20T13:53:12.924Z,21.77
2019-01-20T13:58:57.690Z,28.10
2019-01-20T14:01:58.850Z,29.10
2019-01-20T14:07:43.874Z,28.47
2019-01-20T14:13:29.781Z,27.00
2019-01-20T14:19:21.723Z,29.33
2019-01-20T14:22:18.975Z,28.57
2019-01-20T14:28:05.377Z,24.83
2019-01-20T14:33:50.122Z,27.73
2019-01-20T14:39:36.389Z,27.77
2019-01-20T14:42:37.750Z,27.40
2019-01-20T14:48:23.598Z,26.63
2019-01-20T14:54:09.583Z,25.80
2019-01-20T14:59:55.659Z,25.47
2019-01-20T15:02:57.215Z,27.07
2019-01-20T15:05:59.706Z,29.47
2019-01-20T15:09:00.534Z,28.53
2019-01-20T15:14:46.199Z,26.40
2019-01-20T15:17:47.455Z,24.23
2019-01-20T15:23:33.907Z,30.30
2019-01-20T15:26:36.855Z,31.00
2019-01-20T15:29:36.444Z,28.43
2019-01-20T15:35:22.168Z,29.40
2019-01-20T15:38:23.539Z,30.33
2019-01-20T15:44:08.068Z,29.83
2019-01-20T15:49:53.674Z,26.20
2019-01-20T15:52:54.926Z,30.13
2019-01-20T15:55:55.561Z,30.67
2019-01-20T15:58:55.054Z,31.57
2019-01-20T16:04:40.883Z,27.37
2019-01-20T16:08:00.971Z,28.67
2019-01-20T16:11:02.471Z,24.73
2019-01-20T16:14:03.011Z,24.93
2019-01-20T16:19:48.810Z,34.57
2019-01-20T16:28:54.309Z,32.67
2019-01-20T16:34:42.637Z,28.97
2019-01-20T16:37:43.894Z,28.43
2019-01-20T16:40:44.697Z,30.93
2019-01-20T16:49:36.173Z,32.57
2019-01-20T16:59:03.062Z,29.90
2019-01-20T17:15:27.507Z,31.33
2019-01-20T17:21:12.290Z,33.70
2019-01-20T17:26:57.382Z,31.30
2019-01-20T17:29:58.442Z,34.60
2019-01-20T17:38:56.122Z,30.93
2019-01-20T17:41:57.623Z,32.63
2019-01-20T17:44:59.255Z,33.53
2019-01-20T17:50:43.931Z,29.90
2019-01-20T17:59:55.658Z,30.57
2019-01-20T18:02:56.874Z,30.47
2019-01-20T18:05:56.358Z,33.97
2019-01-20T18:08:58.479Z,32.40
2019-01-20T18:11:59.296Z,31.70
2019-01-20T18:17:45.605Z,34.00
2019-01-20T18:20:46.978Z,26.97
2019-01-20T18:26:33.866Z,32.03
2019-01-20T18:32:19.182Z,31.10
2019-01-20T18:38:04.630Z,32.03
2019-01-20T18:41:06.366Z,31.00
2019-01-20T18:44:08.010Z,31.63
2019-01-20T18:47:08.780Z,34.07
2019-01-20T18:52:54.615Z,33.03
2019-01-20T18:58:40.387Z,37.23
2019-01-20T19:01:40.906Z,36.07
2019-01-20T19:07:32.312Z,30.30
2019-01-20T19:13:17.175Z,33.57
2019-01-20T19:19:02.565Z,29.00
2019-01-20T19:22:03.605Z,30.13
2019-01-20T19:27:48.878Z,31.90
2019-01-20T19:33:34.362Z,31.17
2019-01-20T19:36:54.829Z,31.63
2019-01-20T19:42:40.423Z,32.67
2019-01-20T19:48:28.092Z,30.23
2019-01-20T19:54:15.326Z,28.20
2019-01-20T19:57:16.339Z,30.67
2019-01-20T20:03:01.134Z,30.30
2019-01-20T20:09:07.246Z,32.23
2019-01-20T20:14:52.850Z,32.87
2019-01-20T20:20:38.593Z,33.30
2019-01-20T20:23:39.971Z,33.93
2019-01-20T20:29:25.806Z,34.27
2019-01-20T20:38:20.975Z,32.13
2019-01-20T20:41:20.467Z,31.70
2019-01-20T20:44:22.075Z,29.00
2019-01-20T20:50:09.206Z,41.03
2019-01-20T20:55:55.582Z,34.53
2019-01-20T21:01:44.130Z,33.47
2019-01-20T21:07:29.014Z,32.43
2019-01-20T21:13:14.948Z,31.93
2019-01-20T21:16:15.537Z,35.20
2019-01-20T21:29:12.427Z,29.80
2019-01-20T21:32:11.887Z,32.10
2019-01-20T21:37:58.095Z,31.37
2019-01-20T21:43:45.688Z,34.13
2019-01-20T21:49:33.111Z,31.60
2019-01-20T21:56:13.795Z,31.27
2019-01-20T21:59:20.134Z,33.13
2019-01-20T22:05:59.758Z,32.87
2019-01-20T22:15:08.441Z,31.27
2019-01-20T22:21:48.502Z,31.63
2019-01-20T22:24:52.751Z,27.93
2019-01-20T22:30:42.703Z,31.83
2019-01-20T22:36:28.253Z,27.73
2019-01-20T22:42:14.603Z,29.57
2019-01-20T22:45:13.842Z,29.13
2019-01-20T22:50:59.315Z,30.60
2019-01-20T22:56:45.606Z,34.80
2019-01-20T23:05:35.442Z,35.63
2019-01-20T23:11:21.727Z,33.97
2019-01-20T23:14:41.970Z,33.13
2019-01-20T23:17:43.862Z,33.30
2019-01-20T23:20:45.483Z,37.70
2019-01-20T23:26:31.295Z,31.57
2019-01-20T23:32:16.770Z,33.20
2019-01-20T23:41:26.574Z,38.37
2019-01-20T23:50:22.077Z,35.40
2019-01-20T23:56:47.869Z,33.23
